sensor_id;sensor_type;location;lat;lon;timestamp;P1;durP1;ratioP1;P2;durP2;ratioP2
72649;SDS011;61467;50.674;4.618;2022-09-30T00:00:19;14.55;;;8.90;;
72649;SDS011;61467;50.674;4.618;2022-09-30T00:02:45;12.13;;;8.02;;
72649;SDS011;61467;50.674;4.618;2022-09-30T00:05:12;14.57;;;8.63;;
72649;SDS011;61467;50.674;4.618;2022-09-30T00:07:39;14.40;;;8.53;;
72649;SDS011;61467;50.674;4.618;2022-09-30T00:10:08;14.95;;;8.88;;
72649;SDS011;61467;50.674;4.618;2022-09-30T00:12:35;15.43;;;9.23;;
72649;SDS011;61467;50.674;4.618;2022-09-30T00:15:02;14.45;;;8.98;;
72649;SDS011;61467;50.674;4.618;2022-09-30T00:17:29;14.25;;;9.20;;
72649;SDS011;61467;50.674;4.618;2022-09-30T00:19:56;14.40;;;8.97;;
72649;SDS011;61467;50.674;4.618;2022-09-30T00:22:22;14.88;;;9.07;;
72649;SDS011;61467;50.674;4.618;2022-09-30T00:24:49;15.27;;;8.50;;
72649;SDS011;61467;50.674;4.618;2022-09-30T00:27:17;13.50;;;8.85;;
72649;SDS011;61467;50.674;4.618;2022-09-30T00:29:44;14.73;;;8.60;;
72649;SDS011;61467;50.674;4.618;2022-09-30T00:32:11;15.77;;;9.20;;
72649;SDS011;61467;50.674;4.618;2022-09-30T00:34:38;17.27;;;9.30;;
72649;SDS011;61467;50.674;4.618;2022-09-30T00:37:04;14.20;;;8.57;;
72649;SDS011;61467;50.674;4.618;2022-09-30T00:39:32;14.50;;;9.32;;
72649;SDS011;61467;50.674;4.618;2022-09-30T00:42:02;14.35;;;8.75;;
72649;SDS011;61467;50.674;4.618;2022-09-30T00:44:50;15.53;;;8.53;;
72649;SDS011;61467;50.674;4.618;2022-09-30T00:50:17;15.15;;;8.93;;
72649;SDS011;61467;50.674;4.618;2022-09-30T00:52:54;16.02;;;9.10;;
72649;SDS011;61467;50.674;4.618;2022-09-30T00:55:32;14.85;;;8.68;;
72649;SDS011;61467;50.674;4.618;2022-09-30T00:58:04;15.50;;;8.60;;
72649;SDS011;61467;50.674;4.618;2022-09-30T01:00:35;17.08;;;9.18;;
72649;SDS011;61467;50.674;4.618;2022-09-30T01:03:02;13.88;;;8.50;;
72649;SDS011;61467;50.674;4.618;2022-09-30T01:05:31;14.68;;;9.07;;
72649;SDS011;61467;50.674;4.618;2022-09-30T01:07:59;15.88;;;8.60;;
72649;SDS011;61467;50.674;4.618;2022-09-30T01:10:29;13.40;;;8.63;;
72649;SDS011;61467;50.674;4.618;2022-09-30T01:12:55;13.50;;;8.18;;
72649;SDS011;61467;50.674;4.618;2022-09-30T01:15:23;18.40;;;9.52;;
72649;SDS011;61467;50.674;4.618;2022-09-30T01:18:03;14.68;;;8.90;;
72649;SDS011;61467;50.674;4.618;2022-09-30T01:20:48;15.50;;;9.27;;
72649;SDS011;61467;50.674;4.618;2022-09-30T01:23:37;14.87;;;9.13;;
72649;SDS011;61467;50.674;4.618;2022-09-30T01:26:32;15.95;;;8.65;;
72649;SDS011;61467;50.674;4.618;2022-09-30T01:32:15;15.32;;;8.68;;
72649;SDS011;61467;50.674;4.618;2022-09-30T01:34:54;15.00;;;8.93;;
72649;SDS011;61467;50.674;4.618;2022-09-30T01:37:33;15.67;;;9.23;;
72649;SDS011;61467;50.674;4.618;2022-09-30T01:40:11;14.98;;;8.43;;
72649;SDS011;61467;50.674;4.618;2022-09-30T01:42:50;15.05;;;8.98;;
72649;SDS011;61467;50.674;4.618;2022-09-30T01:45:24;14.52;;;8.82;;
72649;SDS011;61467;50.674;4.618;2022-09-30T01:47:59;15.25;;;9.55;;
72649;SDS011;61467;50.674;4.618;2022-09-30T01:50:32;18.23;;;9.50;;
72649;SDS011;61467;50.674;4.618;2022-09-30T01:53:09;16.05;;;9.85;;
72649;SDS011;61467;50.674;4.618;2022-09-30T01:55:44;16.48;;;9.77;;
72649;SDS011;61467;50.674;4.618;2022-09-30T01:58:16;15.88;;;9.68;;
72649;SDS011;61467;50.674;4.618;2022-09-30T02:00:51;15.85;;;9.63;;
72649;SDS011;61467;50.674;4.618;2022-09-30T02:03:23;17.80;;;9.47;;
72649;SDS011;61467;50.674;4.618;2022-09-30T02:05:56;17.15;;;9.52;;
72649;SDS011;61467;50.674;4.618;2022-09-30T02:08:27;14.05;;;9.10;;
72649;SDS011;61467;50.674;4.618;2022-09-30T02:11:01;18.77;;;9.63;;
72649;SDS011;61467;50.674;4.618;2022-09-30T02:13:31;15.65;;;8.75;;
72649;SDS011;61467;50.674;4.618;2022-09-30T02:16:04;15.60;;;9.03;;
72649;SDS011;61467;50.674;4.618;2022-09-30T02:18:39;15.35;;;9.25;;
72649;SDS011;61467;50.674;4.618;2022-09-30T02:21:08;13.90;;;8.60;;
72649;SDS011;61467;50.674;4.618;2022-09-30T02:23:39;15.32;;;9.10;;
72649;SDS011;61467;50.674;4.618;2022-09-30T02:26:11;15.98;;;9.85;;
72649;SDS011;61467;50.674;4.618;2022-09-30T02:28:43;15.90;;;8.90;;
72649;SDS011;61467;50.674;4.618;2022-09-30T02:31:14;14.32;;;8.85;;
72649;SDS011;61467;50.674;4.618;2022-09-30T02:33:46;14.98;;;9.38;;
72649;SDS011;61467;50.674;4.618;2022-09-30T02:36:16;14.40;;;9.00;;
72649;SDS011;61467;50.674;4.618;2022-09-30T02:38:47;17.92;;;9.25;;
72649;SDS011;61467;50.674;4.618;2022-09-30T02:41:22;14.23;;;8.93;;
72649;SDS011;61467;50.674;4.618;2022-09-30T02:43:51;14.75;;;8.75;;
72649;SDS011;61467;50.674;4.618;2022-09-30T02:46:22;14.40;;;8.93;;
72649;SDS011;61467;50.674;4.618;2022-09-30T02:48:57;15.52;;;9.48;;
72649;SDS011;61467;50.674;4.618;2022-09-30T02:51:29;16.33;;;9.45;;
72649;SDS011;61467;50.674;4.618;2022-09-30T02:54:04;14.90;;;9.40;;
72649;SDS011;61467;50.674;4.618;2022-09-30T02:56:41;15.60;;;9.00;;
72649;SDS011;61467;50.674;4.618;2022-09-30T02:59:15;15.50;;;9.02;;
72649;SDS011;61467;50.674;4.618;2022-09-30T03:01:42;14.57;;;9.00;;
72649;SDS011;61467;50.674;4.618;2022-09-30T03:04:11;16.50;;;9.50;;
72649;SDS011;61467;50.674;4.618;2022-09-30T03:06:40;16.70;;;9.57;;
72649;SDS011;61467;50.674;4.618;2022-09-30T03:09:07;17.23;;;9.98;;
72649;SDS011;61467;50.674;4.618;2022-09-30T03:11:34;17.17;;;9.65;;
72649;SDS011;61467;50.674;4.618;2022-09-30T03:14:12;15.10;;;9.68;;
72649;SDS011;61467;50.674;4.618;2022-09-30T03:16:55;16.02;;;9.70;;
72649;SDS011;61467;50.674;4.618;2022-09-30T03:19:43;15.93;;;9.70;;
72649;SDS011;61467;50.674;4.618;2022-09-30T03:22:29;16.08;;;9.45;;
72649;SDS011;61467;50.674;4.618;2022-09-30T03:25:10;15.70;;;9.30;;
72649;SDS011;61467;50.674;4.618;2022-09-30T03:27:45;16.92;;;9.82;;
72649;SDS011;61467;50.674;4.618;2022-09-30T03:30:19;18.65;;;10.35;;
72649;SDS011;61467;50.674;4.618;2022-09-30T03:33:00;16.20;;;10.50;;
72649;SDS011;61467;50.674;4.618;2022-09-30T03:35:37;17.60;;;10.15;;
72649;SDS011;61467;50.674;4.618;2022-09-30T03:38:11;17.15;;;9.68;;
72649;SDS011;61467;50.674;4.618;2022-09-30T03:40:49;15.32;;;9.68;;
72649;SDS011;61467;50.674;4.618;2022-09-30T03:43:26;17.90;;;10.35;;
72649;SDS011;61467;50.674;4.618;2022-09-30T03:45:58;17.90;;;10.17;;
72649;SDS011;61467;50.674;4.618;2022-09-30T03:48:31;17.33;;;10.52;;
72649;SDS011;61467;50.674;4.618;2022-09-30T03:51:00;15.30;;;9.95;;
72649;SDS011;61467;50.674;4.618;2022-09-30T03:53:28;16.17;;;10.32;;
72649;SDS011;61467;50.674;4.618;2022-09-30T03:55:55;17.27;;;10.70;;
72649;SDS011;61467;50.674;4.618;2022-09-30T03:58:22;17.97;;;10.70;;
72649;SDS011;61467;50.674;4.618;2022-09-30T04:00:51;17.35;;;10.35;;
72649;SDS011;61467;50.674;4.618;2022-09-30T04:03:18;15.70;;;9.73;;
72649;SDS011;61467;50.674;4.618;2022-09-30T04:05:47;17.80;;;10.10;;
72649;SDS011;61467;50.674;4.618;2022-09-30T04:08:16;17.48;;;10.38;;
72649;SDS011;61467;50.674;4.618;2022-09-30T04:10:43;17.13;;;10.33;;
72649;SDS011;61467;50.674;4.618;2022-09-30T04:13:10;18.67;;;10.55;;
72649;SDS011;61467;50.674;4.618;2022-09-30T04:15:37;17.13;;;11.13;;
72649;SDS011;61467;50.674;4.618;2022-09-30T04:18:05;17.50;;;11.38;;
72649;SDS011;61467;50.674;4.618;2022-09-30T04:20:32;17.73;;;11.15;;
72649;SDS011;61467;50.674;4.618;2022-09-30T04:22:59;16.30;;;11.20;;
72649;SDS011;61467;50.674;4.618;2022-09-30T04:25:28;17.55;;;11.10;;
72649;SDS011;61467;50.674;4.618;2022-09-30T04:27:55;21.63;;;12.48;;
72649;SDS011;61467;50.674;4.618;2022-09-30T04:30:21;19.35;;;11.82;;
72649;SDS011;61467;50.674;4.618;2022-09-30T04:32:48;21.00;;;11.73;;
72649;SDS011;61467;50.674;4.618;2022-09-30T04:35:15;19.83;;;11.70;;
72649;SDS011;61467;50.674;4.618;2022-09-30T04:37:42;22.20;;;12.90;;
72649;SDS011;61467;50.674;4.618;2022-09-30T04:40:09;20.05;;;12.02;;
72649;SDS011;61467;50.674;4.618;2022-09-30T04:42:38;19.63;;;12.82;;
72649;SDS011;61467;50.674;4.618;2022-09-30T04:45:07;19.95;;;11.95;;
72649;SDS011;61467;50.674;4.618;2022-09-30T04:47:35;19.47;;;12.40;;
72649;SDS011;61467;50.674;4.618;2022-09-30T04:50:02;18.73;;;12.27;;
72649;SDS011;61467;50.674;4.618;2022-09-30T04:52:29;22.00;;;13.18;;
72649;SDS011;61467;50.674;4.618;2022-09-30T04:54:55;21.58;;;12.65;;
72649;SDS011;61467;50.674;4.618;2022-09-30T04:57:22;22.08;;;12.23;;
72649;SDS011;61467;50.674;4.618;2022-09-30T04:59:50;16.60;;;10.30;;
72649;SDS011;61467;50.674;4.618;2022-09-30T05:02:17;21.15;;;12.18;;
72649;SDS011;61467;50.674;4.618;2022-09-30T05:04:44;20.40;;;12.05;;
72649;SDS011;61467;50.674;4.618;2022-09-30T05:07:11;21.98;;;12.07;;
72649;SDS011;61467;50.674;4.618;2022-09-30T05:09:38;20.77;;;12.95;;
72649;SDS011;61467;50.674;4.618;2022-09-30T05:12:04;20.53;;;13.57;;
72649;SDS011;61467;50.674;4.618;2022-09-30T05:14:32;21.98;;;13.55;;
72649;SDS011;61467;50.674;4.618;2022-09-30T05:17:00;20.60;;;12.73;;
72649;SDS011;61467;50.674;4.618;2022-09-30T05:19:27;23.55;;;12.88;;
72649;SDS011;61467;50.674;4.618;2022-09-30T05:21:54;21.40;;;13.20;;
72649;SDS011;61467;50.674;4.618;2022-09-30T05:24:21;22.57;;;13.30;;
72649;SDS011;61467;50.674;4.618;2022-09-30T05:26:48;23.10;;;13.90;;
72649;SDS011;61467;50.674;4.618;2022-09-30T05:29:14;23.20;;;13.05;;
72649;SDS011;61467;50.674;4.618;2022-09-30T05:31:41;22.80;;;12.80;;
72649;SDS011;61467;50.674;4.618;2022-09-30T05:34:09;20.73;;;12.45;;
72649;SDS011;61467;50.674;4.618;2022-09-30T05:36:36;23.00;;;13.83;;
72649;SDS011;61467;50.674;4.618;2022-09-30T05:39:02;20.90;;;12.70;;
72649;SDS011;61467;50.674;4.618;2022-09-30T05:41:29;20.88;;;12.95;;
72649;SDS011;61467;50.674;4.618;2022-09-30T05:43:56;23.88;;;14.15;;
72649;SDS011;61467;50.674;4.618;2022-09-30T05:46:25;21.73;;;13.10;;
72649;SDS011;61467;50.674;4.618;2022-09-30T05:48:53;22.33;;;13.47;;
72649;SDS011;61467;50.674;4.618;2022-09-30T05:51:21;22.17;;;13.45;;
72649;SDS011;61467;50.674;4.618;2022-09-30T05:53:48;22.20;;;13.27;;
72649;SDS011;61467;50.674;4.618;2022-09-30T05:56:15;22.20;;;12.88;;
72649;SDS011;61467;50.674;4.618;2022-09-30T05:58:42;22.73;;;14.13;;
72649;SDS011;61467;50.674;4.618;2022-09-30T06:01:10;21.43;;;13.10;;
72649;SDS011;61467;50.674;4.618;2022-09-30T06:03:38;23.67;;;13.23;;
72649;SDS011;61467;50.674;4.618;2022-09-30T06:06:05;22.77;;;13.52;;
72649;SDS011;61467;50.674;4.618;2022-09-30T06:08:33;22.88;;;13.02;;
72649;SDS011;61467;50.674;4.618;2022-09-30T06:11:00;24.88;;;14.23;;
72649;SDS011;61467;50.674;4.618;2022-09-30T06:13:35;24.97;;;14.47;;
72649;SDS011;61467;50.674;4.618;2022-09-30T06:16:01;23.55;;;13.45;;
72649;SDS011;61467;50.674;4.618;2022-09-30T06:18:29;25.73;;;14.27;;
72649;SDS011;61467;50.674;4.618;2022-09-30T06:20:56;22.95;;;14.23;;
72649;SDS011;61467;50.674;4.618;2022-09-30T06:23:23;23.90;;;14.45;;
72649;SDS011;61467;50.674;4.618;2022-09-30T06:25:52;25.23;;;13.93;;
72649;SDS011;61467;50.674;4.618;2022-09-30T06:28:20;26.13;;;14.68;;
72649;SDS011;61467;50.674;4.618;2022-09-30T06:30:47;22.38;;;14.52;;
72649;SDS011;61467;50.674;4.618;2022-09-30T06:33:14;24.75;;;14.40;;
72649;SDS011;61467;50.674;4.618;2022-09-30T06:35:42;23.88;;;16.25;;
72649;SDS011;61467;50.674;4.618;2022-09-30T06:38:10;25.77;;;15.33;;
72649;SDS011;61467;50.674;4.618;2022-09-30T06:40:37;26.95;;;15.68;;
72649;SDS011;61467;50.674;4.618;2022-09-30T06:43:05;24.35;;;15.18;;
72649;SDS011;61467;50.674;4.618;2022-09-30T06:45:32;26.75;;;16.52;;
72649;SDS011;61467;50.674;4.618;2022-09-30T06:48:01;25.98;;;15.20;;
72649;SDS011;61467;50.674;4.618;2022-09-30T06:50:29;28.80;;;16.97;;
72649;SDS011;61467;50.674;4.618;2022-09-30T06:52:57;25.55;;;15.95;;
72649;SDS011;61467;50.674;4.618;2022-09-30T06:55:25;28.08;;;16.13;;
72649;SDS011;61467;50.674;4.618;2022-09-30T06:57:52;26.50;;;16.60;;
72649;SDS011;61467;50.674;4.618;2022-09-30T07:00:20;25.20;;;14.95;;
72649;SDS011;61467;50.674;4.618;2022-09-30T07:02:47;28.10;;;16.57;;
72649;SDS011;61467;50.674;4.618;2022-09-30T07:05:14;28.65;;;16.95;;
72649;SDS011;61467;50.674;4.618;2022-09-30T07:07:43;29.65;;;17.02;;
72649;SDS011;61467;50.674;4.618;2022-09-30T07:10:10;27.42;;;16.67;;
72649;SDS011;61467;50.674;4.618;2022-09-30T07:12:36;29.10;;;17.45;;
72649;SDS011;61467;50.674;4.618;2022-09-30T07:15:03;28.33;;;16.00;;
72649;SDS011;61467;50.674;4.618;2022-09-30T07:17:32;29.63;;;15.65;;
72649;SDS011;61467;50.674;4.618;2022-09-30T07:19:59;29.38;;;16.17;;
72649;SDS011;61467;50.674;4.618;2022-09-30T07:22:25;27.33;;;16.80;;
72649;SDS011;61467;50.674;4.618;2022-09-30T07:24:53;24.92;;;15.48;;
72649;SDS011;61467;50.674;4.618;2022-09-30T07:27:21;26.17;;;15.13;;
72649;SDS011;61467;50.674;4.618;2022-09-30T07:29:47;26.98;;;15.20;;
72649;SDS011;61467;50.674;4.618;2022-09-30T07:32:14;26.90;;;16.08;;
72649;SDS011;61467;50.674;4.618;2022-09-30T07:34:42;26.33;;;15.80;;
72649;SDS011;61467;50.674;4.618;2022-09-30T07:37:09;24.95;;;15.60;;
72649;SDS011;61467;50.674;4.618;2022-09-30T07:39:38;24.13;;;15.47;;
72649;SDS011;61467;50.674;4.618;2022-09-30T07:42:05;30.45;;;16.00;;
72649;SDS011;61467;50.674;4.618;2022-09-30T07:44:32;26.83;;;15.77;;
72649;SDS011;61467;50.674;4.618;2022-09-30T07:47:00;29.40;;;16.23;;
72649;SDS011;61467;50.674;4.618;2022-09-30T07:49:27;24.90;;;15.63;;
72649;SDS011;61467;50.674;4.618;2022-09-30T07:51:55;25.87;;;14.83;;
72649;SDS011;61467;50.674;4.618;2022-09-30T07:54:24;24.88;;;15.90;;
72649;SDS011;61467;50.674;4.618;2022-09-30T07:56:52;25.77;;;15.80;;
72649;SDS011;61467;50.674;4.618;2022-09-30T07:59:19;25.02;;;15.70;;
72649;SDS011;61467;50.674;4.618;2022-09-30T08:01:46;26.75;;;15.77;;
72649;SDS011;61467;50.674;4.618;2022-09-30T08:04:15;28.93;;;16.30;;
72649;SDS011;61467;50.674;4.618;2022-09-30T08:06:43;24.77;;;14.52;;
72649;SDS011;61467;50.674;4.618;2022-09-30T08:09:13;26.35;;;15.30;;
72649;SDS011;61467;50.674;4.618;2022-09-30T08:11:41;28.77;;;16.13;;
72649;SDS011;61467;50.674;4.618;2022-09-30T08:14:10;26.00;;;15.80;;
72649;SDS011;61467;50.674;4.618;2022-09-30T08:16:39;25.73;;;14.90;;
72649;SDS011;61467;50.674;4.618;2022-09-30T08:19:06;28.65;;;16.17;;
72649;SDS011;61467;50.674;4.618;2022-09-30T08:21:33;24.95;;;15.13;;
72649;SDS011;61467;50.674;4.618;2022-09-30T08:23:59;23.40;;;14.50;;
72649;SDS011;61467;50.674;4.618;2022-09-30T08:26:30;24.85;;;14.52;;
72649;SDS011;61467;50.674;4.618;2022-09-30T08:28:57;25.53;;;15.13;;
72649;SDS011;61467;50.674;4.618;2022-09-30T08:31:23;23.20;;;13.82;;
72649;SDS011;61467;50.674;4.618;2022-09-30T08:33:50;24.35;;;13.77;;
72649;SDS011;61467;50.674;4.618;2022-09-30T08:36:18;24.67;;;13.27;;
72649;SDS011;61467;50.674;4.618;2022-09-30T08:38:46;23.63;;;13.82;;
72649;SDS011;61467;50.674;4.618;2022-09-30T08:41:20;22.90;;;13.33;;
72649;SDS011;61467;50.674;4.618;2022-09-30T08:44:01;25.13;;;13.88;;
72649;SDS011;61467;50.674;4.618;2022-09-30T08:46:40;25.85;;;13.35;;
72649;SDS011;61467;50.674;4.618;2022-09-30T08:49:27;24.67;;;12.35;;
72649;SDS011;61467;50.674;4.618;2022-09-30T08:52:03;21.88;;;12.48;;
72649;SDS011;61467;50.674;4.618;2022-09-30T08:54:36;22.80;;;13.00;;
72649;SDS011;61467;50.674;4.618;2022-09-30T08:57:08;20.80;;;11.93;;
72649;SDS011;61467;50.674;4.618;2022-09-30T08:59:39;20.60;;;11.15;;
72649;SDS011;61467;50.674;4.618;2022-09-30T09:02:17;19.70;;;10.60;;
72649;SDS011;61467;50.674;4.618;2022-09-30T09:04:48;18.25;;;9.73;;
72649;SDS011;61467;50.674;4.618;2022-09-30T09:07:24;18.63;;;9.63;;
72649;SDS011;61467;50.674;4.618;2022-09-30T09:10:05;17.73;;;10.02;;
72649;SDS011;61467;50.674;4.618;2022-09-30T09:12:44;17.25;;;10.32;;
72649;SDS011;61467;50.674;4.618;2022-09-30T09:15:23;20.15;;;9.95;;
72649;SDS011;61467;50.674;4.618;2022-09-30T09:18:10;15.80;;;9.60;;
72649;SDS011;61467;50.674;4.618;2022-09-30T09:20:48;15.30;;;8.03;;
72649;SDS011;61467;50.674;4.618;2022-09-30T09:23:19;15.15;;;7.53;;
72649;SDS011;61467;50.674;4.618;2022-09-30T09:25:47;17.60;;;7.95;;
72649;SDS011;61467;50.674;4.618;2022-09-30T09:28:21;14.68;;;7.50;;
72649;SDS011;61467;50.674;4.618;2022-09-30T09:30:56;12.98;;;7.57;;
72649;SDS011;61467;50.674;4.618;2022-09-30T09:33:27;12.73;;;6.80;;
72649;SDS011;61467;50.674;4.618;2022-09-30T09:35:59;13.98;;;7.25;;
72649;SDS011;61467;50.674;4.618;2022-09-30T09:38:36;11.75;;;6.80;;
72649;SDS011;61467;50.674;4.618;2022-09-30T09:41:14;15.48;;;6.88;;
72649;SDS011;61467;50.674;4.618;2022-09-30T09:43:50;11.20;;;5.97;;
72649;SDS011;61467;50.674;4.618;2022-09-30T09:46:26;13.80;;;6.67;;
72649;SDS011;61467;50.674;4.618;2022-09-30T09:55:09;11.00;;;5.93;;
72649;SDS011;61467;50.674;4.618;2022-09-30T09:57:37;11.48;;;5.55;;
72649;SDS011;61467;50.674;4.618;2022-09-30T10:00:06;11.20;;;5.33;;
72649;SDS011;61467;50.674;4.618;2022-09-30T10:02:59;8.63;;;4.63;;
72649;SDS011;61467;50.674;4.618;2022-09-30T10:05:29;8.65;;;4.32;;
72649;SDS011;61467;50.674;4.618;2022-09-30T10:08:10;9.23;;;4.90;;
72649;SDS011;61467;50.674;4.618;2022-09-30T10:10:43;9.43;;;4.47;;
72649;SDS011;61467;50.674;4.618;2022-09-30T10:13:21;10.67;;;4.20;;
72649;SDS011;61467;50.674;4.618;2022-09-30T10:15:50;9.13;;;4.45;;
72649;SDS011;61467;50.674;4.618;2022-09-30T10:18:22;10.38;;;4.47;;
72649;SDS011;61467;50.674;4.618;2022-09-30T10:20:53;9.35;;;5.10;;
72649;SDS011;61467;50.674;4.618;2022-09-30T10:23:24;8.23;;;4.10;;
72649;SDS011;61467;50.674;4.618;2022-09-30T10:25:54;9.93;;;3.80;;
72649;SDS011;61467;50.674;4.618;2022-09-30T10:28:29;9.07;;;4.15;;
72649;SDS011;61467;50.674;4.618;2022-09-30T10:30:58;6.72;;;3.17;;
72649;SDS011;61467;50.674;4.618;2022-09-30T10:33:30;6.60;;;2.90;;
72649;SDS011;61467;50.674;4.618;2022-09-30T10:36:05;9.00;;;3.10;;
72649;SDS011;61467;50.674;4.618;2022-09-30T10:38:35;7.87;;;3.00;;
72649;SDS011;61467;50.674;4.618;2022-09-30T10:41:04;7.35;;;3.65;;
72649;SDS011;61467;50.674;4.618;2022-09-30T10:43:33;6.43;;;2.58;;
72649;SDS011;61467;50.674;4.618;2022-09-30T10:46:04;4.60;;;1.60;;
72649;SDS011;61467;50.674;4.618;2022-09-30T10:48:35;5.20;;;1.65;;
72649;SDS011;61467;50.674;4.618;2022-09-30T10:51:03;5.23;;;1.90;;
72649;SDS011;61467;50.674;4.618;2022-09-30T10:53:42;5.47;;;1.73;;
72649;SDS011;61467;50.674;4.618;2022-09-30T10:56:09;6.40;;;2.17;;
72649;SDS011;61467;50.674;4.618;2022-09-30T10:58:43;5.50;;;1.50;;
72649;SDS011;61467;50.674;4.618;2022-09-30T11:01:19;4.65;;;1.60;;
72649;SDS011;61467;50.674;4.618;2022-09-30T11:03:56;9.00;;;1.83;;
72649;SDS011;61467;50.674;4.618;2022-09-30T11:06:30;4.38;;;1.55;;
72649;SDS011;61467;50.674;4.618;2022-09-30T11:09:00;5.05;;;1.98;;
72649;SDS011;61467;50.674;4.618;2022-09-30T11:11:32;5.28;;;1.55;;
72649;SDS011;61467;50.674;4.618;2022-09-30T11:14:06;5.40;;;1.70;;
72649;SDS011;61467;50.674;4.618;2022-09-30T11:16:46;5.70;;;1.80;;
72649;SDS011;61467;50.674;4.618;2022-09-30T11:19:25;5.72;;;1.80;;
72649;SDS011;61467;50.674;4.618;2022-09-30T11:21:56;7.32;;;2.33;;
72649;SDS011;61467;50.674;4.618;2022-09-30T11:24:31;7.20;;;2.78;;
72649;SDS011;61467;50.674;4.618;2022-09-30T11:27:04;9.15;;;2.85;;
72649;SDS011;61467;50.674;4.618;2022-09-30T11:32:31;7.07;;;2.83;;
72649;SDS011;61467;50.674;4.618;2022-09-30T11:35:13;8.18;;;2.63;;
72649;SDS011;61467;50.674;4.618;2022-09-30T11:37:54;6.15;;;2.40;;
72649;SDS011;61467;50.674;4.618;2022-09-30T11:40:34;7.47;;;2.25;;
72649;SDS011;61467;50.674;4.618;2022-09-30T11:43:06;7.47;;;3.03;;
72649;SDS011;61467;50.674;4.618;2022-09-30T11:45:44;6.68;;;2.40;;
72649;SDS011;61467;50.674;4.618;2022-09-30T11:48:28;5.95;;;2.40;;
72649;SDS011;61467;50.674;4.618;2022-09-30T11:51:07;6.90;;;2.20;;
72649;SDS011;61467;50.674;4.618;2022-09-30T11:53:42;7.60;;;2.40;;
72649;SDS011;61467;50.674;4.618;2022-09-30T11:56:23;6.53;;;1.70;;
72649;SDS011;61467;50.674;4.618;2022-09-30T11:59:02;6.78;;;1.70;;
72649;SDS011;61467;50.674;4.618;2022-09-30T12:01:32;7.15;;;2.33;;
72649;SDS011;61467;50.674;4.618;2022-09-30T12:04:03;6.80;;;2.33;;
72649;SDS011;61467;50.674;4.618;2022-09-30T12:06:36;7.38;;;3.10;;
72649;SDS011;61467;50.674;4.618;2022-09-30T12:09:08;7.47;;;2.80;;
72649;SDS011;61467;50.674;4.618;2022-09-30T12:11:42;6.25;;;2.53;;
72649;SDS011;61467;50.674;4.618;2022-09-30T12:14:16;5.68;;;2.03;;
72649;SDS011;61467;50.674;4.618;2022-09-30T12:16:50;7.13;;;2.63;;
72649;SDS011;61467;50.674;4.618;2022-09-30T12:19:19;7.25;;;2.78;;
72649;SDS011;61467;50.674;4.618;2022-09-30T12:21:51;8.30;;;3.17;;
72649;SDS011;61467;50.674;4.618;2022-09-30T12:24:24;7.20;;;2.30;;
72649;SDS011;61467;50.674;4.618;2022-09-30T12:26:56;6.97;;;2.20;;
72649;SDS011;61467;50.674;4.618;2022-09-30T12:29:25;6.10;;;2.75;;
72649;SDS011;61467;50.674;4.618;2022-09-30T12:32:25;7.05;;;2.78;;
72649;SDS011;61467;50.674;4.618;2022-09-30T12:35:23;6.87;;;2.63;;
72649;SDS011;61467;50.674;4.618;2022-09-30T12:38:12;6.90;;;2.67;;
72649;SDS011;61467;50.674;4.618;2022-09-30T12:40:54;7.15;;;3.08;;
72649;SDS011;61467;50.674;4.618;2022-09-30T12:46:44;7.47;;;2.95;;
72649;SDS011;61467;50.674;4.618;2022-09-30T12:49:22;6.30;;;2.27;;
72649;SDS011;61467;50.674;4.618;2022-09-30T12:51:52;7.22;;;2.38;;
72649;SDS011;61467;50.674;4.618;2022-09-30T12:54:24;6.88;;;2.90;;
72649;SDS011;61467;50.674;4.618;2022-09-30T12:56:54;6.03;;;2.85;;
72649;SDS011;61467;50.674;4.618;2022-09-30T12:59:25;5.60;;;2.40;;
72649;SDS011;61467;50.674;4.618;2022-09-30T13:01:54;6.80;;;2.80;;
72649;SDS011;61467;50.674;4.618;2022-09-30T13:04:29;7.55;;;3.30;;
72649;SDS011;61467;50.674;4.618;2022-09-30T13:10:15;6.10;;;2.65;;
72649;SDS011;61467;50.674;4.618;2022-09-30T13:13:09;6.03;;;2.60;;
72649;SDS011;61467;50.674;4.618;2022-09-30T13:15:47;5.60;;;2.27;;
72649;SDS011;61467;50.674;4.618;2022-09-30T13:21:20;6.15;;;1.80;;
72649;SDS011;61467;50.674;4.618;2022-09-30T13:23:48;5.88;;;1.50;;
72649;SDS011;61467;50.674;4.618;2022-09-30T13:29:26;5.67;;;1.87;;
72649;SDS011;61467;50.674;4.618;2022-09-30T13:32:07;5.80;;;1.90;;
72649;SDS011;61467;50.674;4.618;2022-09-30T13:34:51;4.15;;;1.30;;
72649;SDS011;61467;50.674;4.618;2022-09-30T13:37:31;5.65;;;1.80;;
72649;SDS011;61467;50.674;4.618;2022-09-30T13:40:03;5.65;;;2.20;;
72649;SDS011;61467;50.674;4.618;2022-09-30T13:42:39;5.70;;;1.97;;
72649;SDS011;61467;50.674;4.618;2022-09-30T13:45:12;5.32;;;1.90;;
72649;SDS011;61467;50.674;4.618;2022-09-30T13:47:44;8.00;;;1.95;;
72649;SDS011;61467;50.674;4.618;2022-09-30T13:50:15;6.47;;;1.70;;
72649;SDS011;61467;50.674;4.618;2022-09-30T13:52:46;4.97;;;1.75;;
72649;SDS011;61467;50.674;4.618;2022-09-30T13:55:16;3.53;;;1.30;;
72649;SDS011;61467;50.674;4.618;2022-09-30T13:57:50;5.82;;;1.50;;
72649;SDS011;61467;50.674;4.618;2022-09-30T14:00:35;5.28;;;1.50;;
72649;SDS011;61467;50.674;4.618;2022-09-30T14:03:21;6.07;;;1.80;;
72649;SDS011;61467;50.674;4.618;2022-09-30T14:06:03;5.25;;;1.40;;
72649;SDS011;61467;50.674;4.618;2022-09-30T14:08:43;4.33;;;1.13;;
72649;SDS011;61467;50.674;4.618;2022-09-30T14:11:24;4.47;;;1.35;;
72649;SDS011;61467;50.674;4.618;2022-09-30T14:14:09;6.80;;;1.40;;
72649;SDS011;61467;50.674;4.618;2022-09-30T14:16:56;4.40;;;1.05;;
72649;SDS011;61467;50.674;4.618;2022-09-30T14:19:57;4.88;;;1.48;;
72649;SDS011;61467;50.674;4.618;2022-09-30T14:22:40;6.37;;;1.30;;
72649;SDS011;61467;50.674;4.618;2022-09-30T14:25:09;4.95;;;1.48;;
72649;SDS011;61467;50.674;4.618;2022-09-30T14:27:44;3.95;;;1.17;;
72649;SDS011;61467;50.674;4.618;2022-09-30T14:30:20;5.18;;;1.50;;
72649;SDS011;61467;50.674;4.618;2022-09-30T14:32:48;5.13;;;1.60;;
72649;SDS011;61467;50.674;4.618;2022-09-30T14:35:20;5.30;;;1.30;;
72649;SDS011;61467;50.674;4.618;2022-09-30T14:37:49;6.18;;;1.67;;
72649;SDS011;61467;50.674;4.618;2022-09-30T14:40:19;5.15;;;1.88;;
72649;SDS011;61467;50.674;4.618;2022-09-30T14:42:50;5.40;;;1.67;;
72649;SDS011;61467;50.674;4.618;2022-09-30T14:45:21;4.80;;;1.65;;
72649;SDS011;61467;50.674;4.618;2022-09-30T14:47:54;8.37;;;1.80;;
72649;SDS011;61467;50.674;4.618;2022-09-30T14:50:26;5.75;;;1.90;;
72649;SDS011;61467;50.674;4.618;2022-09-30T14:52:56;6.15;;;1.60;;
72649;SDS011;61467;50.674;4.618;2022-09-30T14:55:26;5.97;;;1.95;;
72649;SDS011;61467;50.674;4.618;2022-09-30T14:57:55;6.13;;;1.88;;
72649;SDS011;61467;50.674;4.618;2022-09-30T15:00:39;6.33;;;2.07;;
72649;SDS011;61467;50.674;4.618;2022-09-30T15:03:09;5.47;;;1.73;;
72649;SDS011;61467;50.674;4.618;2022-09-30T15:05:36;5.47;;;1.77;;
72649;SDS011;61467;50.674;4.618;2022-09-30T15:08:08;6.70;;;1.90;;
72649;SDS011;61467;50.674;4.618;2022-09-30T15:10:35;3.83;;;1.30;;
72649;SDS011;61467;50.674;4.618;2022-09-30T15:13:02;4.33;;;1.33;;
72649;SDS011;61467;50.674;4.618;2022-09-30T15:15:35;5.32;;;1.50;;
72649;SDS011;61467;50.674;4.618;2022-09-30T15:18:26;4.13;;;1.40;;
72649;SDS011;61467;50.674;4.618;2022-09-30T15:20:57;5.97;;;2.35;;
72649;SDS011;61467;50.674;4.618;2022-09-30T15:23:27;5.93;;;1.92;;
72649;SDS011;61467;50.674;4.618;2022-09-30T15:26:00;6.67;;;1.70;;
72649;SDS011;61467;50.674;4.618;2022-09-30T15:28:28;6.93;;;1.98;;